Terminal Aerodrome Forecast
Issued by NWS

Home | Current Version | Previous Version | Text Only | Print | Product List | Glossary On
Versions: 1 2 3 4 5 6 7 8 9 10 11 12 13
000
FTUS44 KMAF 022300
TAFINK
TAF
KINK 022330Z 0300/0324 14010KT P6SM SKC
     FM030100 14015G21KT P6SM SKC
     FM030600 14008KT P6SM SKC
     FM031300 15015G25KT P6SM SCT250=

USA.gov is the U.S. government's official web portal to all federal, state and local government web resources and services.